sensor_id;sensor_type;location;lat;lon;timestamp;P1;durP1;ratioP1;P2;durP2;ratioP2
41629;SDS011;27322;49.488;8.480;2023-12-04T00:00:04;14.15;;;6.30;;
41629;SDS011;27322;49.488;8.480;2023-12-04T00:02:31;15.32;;;6.03;;
41629;SDS011;27322;49.488;8.480;2023-12-04T00:04:57;15.63;;;6.07;;
41629;SDS011;27322;49.488;8.480;2023-12-04T00:07:23;17.38;;;6.35;;
41629;SDS011;27322;49.488;8.480;2023-12-04T00:09:48;15.18;;;6.38;;
41629;SDS011;27322;49.488;8.480;2023-12-04T00:12:14;14.27;;;6.35;;
41629;SDS011;27322;49.488;8.480;2023-12-04T00:14:39;13.32;;;5.93;;
41629;SDS011;27322;49.488;8.480;2023-12-04T00:17:05;16.08;;;6.38;;
41629;SDS011;27322;49.488;8.480;2023-12-04T00:19:30;14.75;;;6.38;;
41629;SDS011;27322;49.488;8.480;2023-12-04T00:21:56;15.02;;;6.20;;
41629;SDS011;27322;49.488;8.480;2023-12-04T00:24:22;15.65;;;5.82;;
41629;SDS011;27322;49.488;8.480;2023-12-04T00:26:47;13.43;;;5.72;;
41629;SDS011;27322;49.488;8.480;2023-12-04T00:29:13;13.43;;;5.80;;
41629;SDS011;27322;49.488;8.480;2023-12-04T00:31:38;15.82;;;5.90;;
41629;SDS011;27322;49.488;8.480;2023-12-04T00:34:04;16.33;;;5.57;;
41629;SDS011;27322;49.488;8.480;2023-12-04T00:36:29;17.08;;;6.35;;
41629;SDS011;27322;49.488;8.480;2023-12-04T00:38:55;14.27;;;6.55;;
41629;SDS011;27322;49.488;8.480;2023-12-04T00:41:20;14.35;;;6.25;;
41629;SDS011;27322;49.488;8.480;2023-12-04T00:43:46;16.77;;;6.50;;
41629;SDS011;27322;49.488;8.480;2023-12-04T00:46:11;15.65;;;6.28;;
41629;SDS011;27322;49.488;8.480;2023-12-04T00:48:37;13.57;;;5.75;;
41629;SDS011;27322;49.488;8.480;2023-12-04T00:51:03;16.60;;;6.53;;
41629;SDS011;27322;49.488;8.480;2023-12-04T00:53:28;12.23;;;5.88;;
41629;SDS011;27322;49.488;8.480;2023-12-04T00:55:54;13.65;;;5.97;;
41629;SDS011;27322;49.488;8.480;2023-12-04T00:58:19;17.13;;;6.18;;
41629;SDS011;27322;49.488;8.480;2023-12-04T01:00:45;15.10;;;6.35;;
41629;SDS011;27322;49.488;8.480;2023-12-04T01:03:13;15.88;;;6.43;;
41629;SDS011;27322;49.488;8.480;2023-12-04T01:05:39;13.95;;;5.95;;
41629;SDS011;27322;49.488;8.480;2023-12-04T01:08:05;14.57;;;6.03;;
41629;SDS011;27322;49.488;8.480;2023-12-04T01:10:30;13.98;;;5.63;;
41629;SDS011;27322;49.488;8.480;2023-12-04T01:12:56;13.55;;;5.85;;
41629;SDS011;27322;49.488;8.480;2023-12-04T01:15:22;15.50;;;6.13;;
41629;SDS011;27322;49.488;8.480;2023-12-04T01:17:48;17.45;;;5.90;;
41629;SDS011;27322;49.488;8.480;2023-12-04T01:20:14;13.98;;;5.93;;
41629;SDS011;27322;49.488;8.480;2023-12-04T01:22:40;14.02;;;6.03;;
41629;SDS011;27322;49.488;8.480;2023-12-04T01:25:05;12.30;;;5.53;;
41629;SDS011;27322;49.488;8.480;2023-12-04T01:27:31;13.10;;;5.78;;
41629;SDS011;27322;49.488;8.480;2023-12-04T01:30:00;11.93;;;5.20;;
41629;SDS011;27322;49.488;8.480;2023-12-04T01:32:26;13.02;;;5.47;;
41629;SDS011;27322;49.488;8.480;2023-12-04T01:34:51;14.40;;;5.78;;
41629;SDS011;27322;49.488;8.480;2023-12-04T01:37:17;14.25;;;5.95;;
41629;SDS011;27322;49.488;8.480;2023-12-04T01:39:42;14.07;;;5.97;;
41629;SDS011;27322;49.488;8.480;2023-12-04T01:42:09;13.77;;;5.65;;
41629;SDS011;27322;49.488;8.480;2023-12-04T01:44:35;16.40;;;5.88;;
41629;SDS011;27322;49.488;8.480;2023-12-04T01:47:02;16.40;;;5.90;;
41629;SDS011;27322;49.488;8.480;2023-12-04T01:49:28;11.82;;;4.97;;
41629;SDS011;27322;49.488;8.480;2023-12-04T01:51:54;12.80;;;5.30;;
41629;SDS011;27322;49.488;8.480;2023-12-04T01:54:20;15.30;;;5.70;;
41629;SDS011;27322;49.488;8.480;2023-12-04T01:56:46;13.52;;;5.78;;
41629;SDS011;27322;49.488;8.480;2023-12-04T01:59:12;13.52;;;5.18;;
41629;SDS011;27322;49.488;8.480;2023-12-04T02:01:37;12.45;;;5.53;;
41629;SDS011;27322;49.488;8.480;2023-12-04T02:04:05;15.27;;;5.72;;
41629;SDS011;27322;49.488;8.480;2023-12-04T02:06:31;15.00;;;6.00;;
41629;SDS011;27322;49.488;8.480;2023-12-04T02:08:57;12.02;;;4.85;;
41629;SDS011;27322;49.488;8.480;2023-12-04T02:11:22;13.02;;;5.40;;
41629;SDS011;27322;49.488;8.480;2023-12-04T02:13:48;14.23;;;5.55;;
41629;SDS011;27322;49.488;8.480;2023-12-04T02:16:14;11.27;;;5.00;;
41629;SDS011;27322;49.488;8.480;2023-12-04T02:18:42;12.40;;;5.28;;
41629;SDS011;27322;49.488;8.480;2023-12-04T02:21:08;12.00;;;4.88;;
41629;SDS011;27322;49.488;8.480;2023-12-04T02:23:34;13.43;;;5.45;;
41629;SDS011;27322;49.488;8.480;2023-12-04T02:26:01;13.05;;;5.60;;
41629;SDS011;27322;49.488;8.480;2023-12-04T02:28:33;14.52;;;5.72;;
41629;SDS011;27322;49.488;8.480;2023-12-04T02:31:02;13.93;;;5.13;;
41629;SDS011;27322;49.488;8.480;2023-12-04T02:33:30;12.90;;;5.22;;
41629;SDS011;27322;49.488;8.480;2023-12-04T02:35:58;12.23;;;5.45;;
41629;SDS011;27322;49.488;8.480;2023-12-04T02:38:24;15.77;;;5.75;;
41629;SDS011;27322;49.488;8.480;2023-12-04T02:40:50;13.13;;;5.57;;
41629;SDS011;27322;49.488;8.480;2023-12-04T02:43:16;11.27;;;5.00;;
41629;SDS011;27322;49.488;8.480;2023-12-04T02:45:41;12.32;;;5.45;;
41629;SDS011;27322;49.488;8.480;2023-12-04T02:48:07;13.05;;;5.60;;
41629;SDS011;27322;49.488;8.480;2023-12-04T02:50:33;16.30;;;5.68;;
41629;SDS011;27322;49.488;8.480;2023-12-04T02:52:58;13.57;;;5.32;;
41629;SDS011;27322;49.488;8.480;2023-12-04T02:55:24;14.45;;;5.13;;
41629;SDS011;27322;49.488;8.480;2023-12-04T02:57:49;14.30;;;5.40;;
41629;SDS011;27322;49.488;8.480;2023-12-04T03:00:15;15.65;;;5.30;;
41629;SDS011;27322;49.488;8.480;2023-12-04T03:02:41;15.30;;;5.85;;
41629;SDS011;27322;49.488;8.480;2023-12-04T03:05:06;12.75;;;5.50;;
41629;SDS011;27322;49.488;8.480;2023-12-04T03:07:32;14.23;;;5.38;;
41629;SDS011;27322;49.488;8.480;2023-12-04T03:09:57;12.95;;;5.32;;
41629;SDS011;27322;49.488;8.480;2023-12-04T03:12:23;13.43;;;5.43;;
41629;SDS011;27322;49.488;8.480;2023-12-04T03:14:48;10.88;;;5.25;;
41629;SDS011;27322;49.488;8.480;2023-12-04T03:17:14;14.48;;;5.43;;
41629;SDS011;27322;49.488;8.480;2023-12-04T03:19:39;12.63;;;5.25;;
41629;SDS011;27322;49.488;8.480;2023-12-04T03:22:05;13.10;;;5.10;;
41629;SDS011;27322;49.488;8.480;2023-12-04T03:24:31;11.55;;;5.10;;
41629;SDS011;27322;49.488;8.480;2023-12-04T03:26:56;12.95;;;5.57;;
41629;SDS011;27322;49.488;8.480;2023-12-04T03:29:22;13.73;;;5.40;;
41629;SDS011;27322;49.488;8.480;2023-12-04T03:31:47;11.90;;;5.07;;
41629;SDS011;27322;49.488;8.480;2023-12-04T03:34:13;14.85;;;5.63;;
41629;SDS011;27322;49.488;8.480;2023-12-04T03:36:38;15.23;;;5.60;;
41629;SDS011;27322;49.488;8.480;2023-12-04T03:39:04;13.25;;;5.40;;
41629;SDS011;27322;49.488;8.480;2023-12-04T03:41:30;11.40;;;5.13;;
41629;SDS011;27322;49.488;8.480;2023-12-04T03:43:55;12.13;;;5.25;;
41629;SDS011;27322;49.488;8.480;2023-12-04T03:46:21;14.02;;;5.82;;
41629;SDS011;27322;49.488;8.480;2023-12-04T03:48:46;12.68;;;5.53;;
41629;SDS011;27322;49.488;8.480;2023-12-04T03:51:12;11.75;;;5.05;;
41629;SDS011;27322;49.488;8.480;2023-12-04T03:53:37;12.20;;;4.50;;
41629;SDS011;27322;49.488;8.480;2023-12-04T03:56:03;12.23;;;5.60;;
41629;SDS011;27322;49.488;8.480;2023-12-04T03:58:29;12.27;;;5.53;;
41629;SDS011;27322;49.488;8.480;2023-12-04T04:00:54;11.30;;;5.70;;
41629;SDS011;27322;49.488;8.480;2023-12-04T04:03:20;13.27;;;5.40;;
41629;SDS011;27322;49.488;8.480;2023-12-04T04:05:46;13.95;;;4.93;;
41629;SDS011;27322;49.488;8.480;2023-12-04T04:08:11;17.38;;;5.72;;
41629;SDS011;27322;49.488;8.480;2023-12-04T04:10:37;11.80;;;4.93;;
41629;SDS011;27322;49.488;8.480;2023-12-04T04:13:02;13.48;;;5.25;;
41629;SDS011;27322;49.488;8.480;2023-12-04T04:15:28;11.43;;;5.13;;
41629;SDS011;27322;49.488;8.480;2023-12-04T04:17:53;11.73;;;5.43;;
41629;SDS011;27322;49.488;8.480;2023-12-04T04:20:19;13.68;;;5.38;;
41629;SDS011;27322;49.488;8.480;2023-12-04T04:22:47;15.88;;;5.40;;
41629;SDS011;27322;49.488;8.480;2023-12-04T04:25:13;12.50;;;5.10;;
41629;SDS011;27322;49.488;8.480;2023-12-04T04:27:39;14.48;;;5.68;;
41629;SDS011;27322;49.488;8.480;2023-12-04T04:30:04;15.02;;;5.57;;
41629;SDS011;27322;49.488;8.480;2023-12-04T04:32:30;15.15;;;5.63;;
41629;SDS011;27322;49.488;8.480;2023-12-04T04:34:56;14.70;;;5.43;;
41629;SDS011;27322;49.488;8.480;2023-12-04T04:37:22;16.05;;;6.38;;
41629;SDS011;27322;49.488;8.480;2023-12-04T04:39:48;13.85;;;5.15;;
41629;SDS011;27322;49.488;8.480;2023-12-04T04:42:14;16.52;;;6.40;;
41629;SDS011;27322;49.488;8.480;2023-12-04T04:44:39;17.42;;;6.07;;
41629;SDS011;27322;49.488;8.480;2023-12-04T04:47:05;13.13;;;5.25;;
41629;SDS011;27322;49.488;8.480;2023-12-04T04:49:31;13.13;;;5.47;;
41629;SDS011;27322;49.488;8.480;2023-12-04T04:51:56;14.60;;;5.55;;
41629;SDS011;27322;49.488;8.480;2023-12-04T04:54:22;12.57;;;5.60;;
41629;SDS011;27322;49.488;8.480;2023-12-04T04:56:47;13.55;;;4.78;;
41629;SDS011;27322;49.488;8.480;2023-12-04T04:59:13;14.60;;;5.35;;
41629;SDS011;27322;49.488;8.480;2023-12-04T05:01:38;12.57;;;5.00;;
41629;SDS011;27322;49.488;8.480;2023-12-04T05:04:04;13.00;;;5.60;;
41629;SDS011;27322;49.488;8.480;2023-12-04T05:06:30;12.55;;;5.30;;
41629;SDS011;27322;49.488;8.480;2023-12-04T05:08:55;14.85;;;5.57;;
41629;SDS011;27322;49.488;8.480;2023-12-04T05:11:21;12.52;;;5.25;;
41629;SDS011;27322;49.488;8.480;2023-12-04T05:13:47;12.50;;;5.30;;
41629;SDS011;27322;49.488;8.480;2023-12-04T05:16:13;15.55;;;5.90;;
41629;SDS011;27322;49.488;8.480;2023-12-04T05:18:39;17.13;;;6.55;;
41629;SDS011;27322;49.488;8.480;2023-12-04T05:21:10;13.82;;;6.18;;
41629;SDS011;27322;49.488;8.480;2023-12-04T05:23:37;14.02;;;6.15;;
41629;SDS011;27322;49.488;8.480;2023-12-04T05:26:03;17.48;;;6.75;;
41629;SDS011;27322;49.488;8.480;2023-12-04T05:28:29;16.33;;;6.32;;
41629;SDS011;27322;49.488;8.480;2023-12-04T05:30:55;15.45;;;6.25;;
41629;SDS011;27322;49.488;8.480;2023-12-04T05:33:20;14.63;;;6.57;;
41629;SDS011;27322;49.488;8.480;2023-12-04T05:35:47;14.95;;;7.35;;
41629;SDS011;27322;49.488;8.480;2023-12-04T05:38:13;17.63;;;6.95;;
41629;SDS011;27322;49.488;8.480;2023-12-04T05:40:38;16.10;;;6.28;;
41629;SDS011;27322;49.488;8.480;2023-12-04T05:43:04;18.70;;;7.18;;
41629;SDS011;27322;49.488;8.480;2023-12-04T05:45:29;16.67;;;6.90;;
41629;SDS011;27322;49.488;8.480;2023-12-04T05:47:55;16.40;;;7.22;;
41629;SDS011;27322;49.488;8.480;2023-12-04T05:50:21;17.90;;;7.65;;
41629;SDS011;27322;49.488;8.480;2023-12-04T05:52:46;18.02;;;7.18;;
41629;SDS011;27322;49.488;8.480;2023-12-04T05:55:12;19.05;;;8.80;;
41629;SDS011;27322;49.488;8.480;2023-12-04T05:57:38;21.08;;;8.35;;
41629;SDS011;27322;49.488;8.480;2023-12-04T06:00:04;18.80;;;7.88;;
41629;SDS011;27322;49.488;8.480;2023-12-04T06:02:37;20.60;;;8.10;;
41629;SDS011;27322;49.488;8.480;2023-12-04T06:05:11;23.48;;;8.95;;
41629;SDS011;27322;49.488;8.480;2023-12-04T06:07:37;22.30;;;9.02;;
41629;SDS011;27322;49.488;8.480;2023-12-04T06:10:03;20.85;;;8.98;;
41629;SDS011;27322;49.488;8.480;2023-12-04T06:12:33;21.63;;;8.40;;
41629;SDS011;27322;49.488;8.480;2023-12-04T06:14:58;21.05;;;8.07;;
41629;SDS011;27322;49.488;8.480;2023-12-04T06:17:24;20.45;;;8.02;;
41629;SDS011;27322;49.488;8.480;2023-12-04T06:19:51;19.27;;;8.18;;
41629;SDS011;27322;49.488;8.480;2023-12-04T06:22:16;19.27;;;8.55;;
41629;SDS011;27322;49.488;8.480;2023-12-04T06:24:45;21.35;;;9.43;;
41629;SDS011;27322;49.488;8.480;2023-12-04T06:27:12;19.17;;;8.00;;
41629;SDS011;27322;49.488;8.480;2023-12-04T06:29:47;21.17;;;8.68;;
41629;SDS011;27322;49.488;8.480;2023-12-04T06:32:14;20.60;;;8.32;;
41629;SDS011;27322;49.488;8.480;2023-12-04T06:34:40;17.80;;;6.90;;
41629;SDS011;27322;49.488;8.480;2023-12-04T06:37:09;17.95;;;6.75;;
41629;SDS011;27322;49.488;8.480;2023-12-04T06:39:36;20.33;;;8.15;;
41629;SDS011;27322;49.488;8.480;2023-12-04T06:42:04;16.70;;;7.88;;
41629;SDS011;27322;49.488;8.480;2023-12-04T06:44:33;17.02;;;7.57;;
41629;SDS011;27322;49.488;8.480;2023-12-04T06:46:59;17.17;;;7.07;;
41629;SDS011;27322;49.488;8.480;2023-12-04T06:49:27;16.33;;;7.32;;
41629;SDS011;27322;49.488;8.480;2023-12-04T06:51:55;16.75;;;7.10;;
41629;SDS011;27322;49.488;8.480;2023-12-04T06:54:21;17.95;;;7.63;;
41629;SDS011;27322;49.488;8.480;2023-12-04T06:56:47;18.98;;;7.78;;
41629;SDS011;27322;49.488;8.480;2023-12-04T06:59:12;19.02;;;7.70;;
41629;SDS011;27322;49.488;8.480;2023-12-04T07:01:38;18.05;;;8.05;;
41629;SDS011;27322;49.488;8.480;2023-12-04T07:04:03;22.20;;;8.00;;
41629;SDS011;27322;49.488;8.480;2023-12-04T07:06:40;19.15;;;8.38;;
41629;SDS011;27322;49.488;8.480;2023-12-04T07:09:06;21.42;;;8.35;;
41629;SDS011;27322;49.488;8.480;2023-12-04T07:11:35;18.67;;;8.25;;
41629;SDS011;27322;49.488;8.480;2023-12-04T07:14:01;19.35;;;8.35;;
41629;SDS011;27322;49.488;8.480;2023-12-04T07:16:26;22.02;;;9.63;;
41629;SDS011;27322;49.488;8.480;2023-12-04T07:18:52;20.58;;;8.93;;
41629;SDS011;27322;49.488;8.480;2023-12-04T07:21:18;19.60;;;8.75;;
41629;SDS011;27322;49.488;8.480;2023-12-04T07:23:44;21.55;;;8.73;;
41629;SDS011;27322;49.488;8.480;2023-12-04T07:26:09;20.98;;;8.77;;
41629;SDS011;27322;49.488;8.480;2023-12-04T07:28:35;17.63;;;8.70;;
41629;SDS011;27322;49.488;8.480;2023-12-04T07:31:01;20.95;;;9.18;;
41629;SDS011;27322;49.488;8.480;2023-12-04T07:33:29;18.08;;;8.50;;
41629;SDS011;27322;49.488;8.480;2023-12-04T07:35:55;20.85;;;9.10;;
41629;SDS011;27322;49.488;8.480;2023-12-04T07:38:20;20.92;;;8.10;;
41629;SDS011;27322;49.488;8.480;2023-12-04T07:40:46;19.65;;;8.63;;
41629;SDS011;27322;49.488;8.480;2023-12-04T07:43:11;18.35;;;8.02;;
41629;SDS011;27322;49.488;8.480;2023-12-04T07:45:39;19.35;;;8.07;;
41629;SDS011;27322;49.488;8.480;2023-12-04T07:48:06;19.52;;;8.10;;
41629;SDS011;27322;49.488;8.480;2023-12-04T07:50:31;18.23;;;8.13;;
41629;SDS011;27322;49.488;8.480;2023-12-04T07:52:57;17.00;;;7.90;;
41629;SDS011;27322;49.488;8.480;2023-12-04T07:55:23;16.98;;;7.70;;
41629;SDS011;27322;49.488;8.480;2023-12-04T07:57:48;19.10;;;7.68;;
41629;SDS011;27322;49.488;8.480;2023-12-04T08:00:15;18.75;;;8.30;;
41629;SDS011;27322;49.488;8.480;2023-12-04T08:02:42;18.10;;;8.30;;
41629;SDS011;27322;49.488;8.480;2023-12-04T08:05:09;17.80;;;8.00;;
41629;SDS011;27322;49.488;8.480;2023-12-04T08:07:35;16.58;;;7.55;;
41629;SDS011;27322;49.488;8.480;2023-12-04T08:10:01;16.88;;;6.30;;
41629;SDS011;27322;49.488;8.480;2023-12-04T08:12:26;15.40;;;6.45;;
41629;SDS011;27322;49.488;8.480;2023-12-04T08:14:52;17.25;;;7.38;;
41629;SDS011;27322;49.488;8.480;2023-12-04T08:17:18;17.88;;;7.38;;
41629;SDS011;27322;49.488;8.480;2023-12-04T08:19:44;16.30;;;6.82;;
41629;SDS011;27322;49.488;8.480;2023-12-04T08:22:09;13.93;;;5.63;;
41629;SDS011;27322;49.488;8.480;2023-12-04T08:24:35;12.65;;;5.28;;
41629;SDS011;27322;49.488;8.480;2023-12-04T08:27:00;13.27;;;5.85;;
41629;SDS011;27322;49.488;8.480;2023-12-04T08:29:26;14.30;;;6.53;;
41629;SDS011;27322;49.488;8.480;2023-12-04T08:31:51;18.63;;;7.50;;
41629;SDS011;27322;49.488;8.480;2023-12-04T08:34:17;14.40;;;6.10;;
41629;SDS011;27322;49.488;8.480;2023-12-04T08:36:43;16.58;;;7.30;;
41629;SDS011;27322;49.488;8.480;2023-12-04T08:39:08;18.08;;;7.25;;
41629;SDS011;27322;49.488;8.480;2023-12-04T08:41:34;18.13;;;6.75;;
41629;SDS011;27322;49.488;8.480;2023-12-04T08:43:59;16.27;;;6.63;;
41629;SDS011;27322;49.488;8.480;2023-12-04T08:46:25;15.32;;;6.28;;
41629;SDS011;27322;49.488;8.480;2023-12-04T08:48:51;15.68;;;7.20;;
41629;SDS011;27322;49.488;8.480;2023-12-04T08:51:16;19.98;;;7.88;;
41629;SDS011;27322;49.488;8.480;2023-12-04T08:53:43;22.65;;;8.65;;
41629;SDS011;27322;49.488;8.480;2023-12-04T08:56:09;20.25;;;8.23;;
41629;SDS011;27322;49.488;8.480;2023-12-04T08:58:35;20.20;;;8.30;;
41629;SDS011;27322;49.488;8.480;2023-12-04T09:01:00;20.20;;;8.85;;
41629;SDS011;27322;49.488;8.480;2023-12-04T09:03:26;20.05;;;8.52;;
41629;SDS011;27322;49.488;8.480;2023-12-04T09:05:52;23.38;;;9.13;;
41629;SDS011;27322;49.488;8.480;2023-12-04T09:08:19;15.93;;;7.60;;
41629;SDS011;27322;49.488;8.480;2023-12-04T09:10:45;21.13;;;8.23;;
41629;SDS011;27322;49.488;8.480;2023-12-04T09:13:12;17.40;;;7.72;;
41629;SDS011;27322;49.488;8.480;2023-12-04T09:15:38;18.10;;;7.60;;
41629;SDS011;27322;49.488;8.480;2023-12-04T09:18:03;16.50;;;7.18;;
41629;SDS011;27322;49.488;8.480;2023-12-04T09:20:29;14.02;;;5.47;;
41629;SDS011;27322;49.488;8.480;2023-12-04T09:22:55;13.40;;;5.45;;
41629;SDS011;27322;49.488;8.480;2023-12-04T09:25:20;11.07;;;4.35;;
41629;SDS011;27322;49.488;8.480;2023-12-04T09:27:46;9.13;;;3.80;;
41629;SDS011;27322;49.488;8.480;2023-12-04T09:30:11;9.52;;;4.18;;
41629;SDS011;27322;49.488;8.480;2023-12-04T09:32:38;9.15;;;4.03;;
41629;SDS011;27322;49.488;8.480;2023-12-04T09:35:04;8.82;;;3.67;;
41629;SDS011;27322;49.488;8.480;2023-12-04T09:37:30;8.10;;;3.60;;
41629;SDS011;27322;49.488;8.480;2023-12-04T09:39:55;8.20;;;3.58;;
41629;SDS011;27322;49.488;8.480;2023-12-04T09:42:21;12.15;;;3.78;;
41629;SDS011;27322;49.488;8.480;2023-12-04T09:44:49;9.63;;;3.55;;
41629;SDS011;27322;49.488;8.480;2023-12-04T09:47:18;9.43;;;3.67;;
41629;SDS011;27322;49.488;8.480;2023-12-04T09:49:47;9.02;;;3.60;;
41629;SDS011;27322;49.488;8.480;2023-12-04T09:52:15;9.30;;;4.03;;
41629;SDS011;27322;49.488;8.480;2023-12-04T09:54:40;14.65;;;3.75;;
41629;SDS011;27322;49.488;8.480;2023-12-04T09:57:07;7.43;;;3.33;;
41629;SDS011;27322;49.488;8.480;2023-12-04T09:59:33;8.70;;;3.28;;
41629;SDS011;27322;49.488;8.480;2023-12-04T10:02:01;8.13;;;3.00;;
41629;SDS011;27322;49.488;8.480;2023-12-04T10:04:26;10.20;;;3.70;;
41629;SDS011;27322;49.488;8.480;2023-12-04T10:06:52;9.02;;;3.78;;
41629;SDS011;27322;49.488;8.480;2023-12-04T10:09:18;13.20;;;3.67;;
41629;SDS011;27322;49.488;8.480;2023-12-04T10:11:47;7.40;;;3.15;;
41629;SDS011;27322;49.488;8.480;2023-12-04T10:14:16;7.35;;;3.28;;
41629;SDS011;27322;49.488;8.480;2023-12-04T10:16:43;9.18;;;3.50;;
41629;SDS011;27322;49.488;8.480;2023-12-04T10:21:42;7.90;;;2.85;;
41629;SDS011;27322;49.488;8.480;2023-12-04T10:24:09;6.78;;;2.80;;
41629;SDS011;27322;49.488;8.480;2023-12-04T10:26:34;9.25;;;3.05;;
41629;SDS011;27322;49.488;8.480;2023-12-04T10:29:01;7.68;;;3.33;;
41629;SDS011;27322;49.488;8.480;2023-12-04T10:31:32;8.20;;;2.92;;
41629;SDS011;27322;49.488;8.480;2023-12-04T10:34:02;6.65;;;2.65;;
41629;SDS011;27322;49.488;8.480;2023-12-04T10:36:29;6.50;;;3.05;;
41629;SDS011;27322;49.488;8.480;2023-12-04T10:39:01;9.55;;;3.20;;
41629;SDS011;27322;49.488;8.480;2023-12-04T10:41:30;8.25;;;3.00;;
41629;SDS011;27322;49.488;8.480;2023-12-04T10:43:59;7.00;;;2.55;;
41629;SDS011;27322;49.488;8.480;2023-12-04T10:46:26;7.78;;;3.00;;
41629;SDS011;27322;49.488;8.480;2023-12-04T10:48:52;6.90;;;2.90;;
41629;SDS011;27322;49.488;8.480;2023-12-04T10:51:18;9.15;;;3.33;;
41629;SDS011;27322;49.488;8.480;2023-12-04T10:53:46;8.00;;;3.42;;
41629;SDS011;27322;49.488;8.480;2023-12-04T10:56:14;8.32;;;3.33;;
41629;SDS011;27322;49.488;8.480;2023-12-04T10:59:11;9.50;;;3.50;;
41629;SDS011;27322;49.488;8.480;2023-12-04T11:01:40;8.05;;;3.47;;
41629;SDS011;27322;49.488;8.480;2023-12-04T11:04:10;7.97;;;3.50;;
41629;SDS011;27322;49.488;8.480;2023-12-04T11:06:42;8.65;;;3.53;;
41629;SDS011;27322;49.488;8.480;2023-12-04T11:09:12;8.25;;;3.25;;
41629;SDS011;27322;49.488;8.480;2023-12-04T11:11:39;9.32;;;3.28;;
41629;SDS011;27322;49.488;8.480;2023-12-04T11:14:09;10.85;;;4.00;;
41629;SDS011;27322;49.488;8.480;2023-12-04T11:22:06;10.13;;;3.58;;
41629;SDS011;27322;49.488;8.480;2023-12-04T11:24:32;10.23;;;3.47;;
41629;SDS011;27322;49.488;8.480;2023-12-04T11:27:00;9.30;;;3.55;;
41629;SDS011;27322;49.488;8.480;2023-12-04T11:29:26;9.68;;;3.85;;
41629;SDS011;27322;49.488;8.480;2023-12-04T11:31:54;9.02;;;3.47;;
41629;SDS011;27322;49.488;8.480;2023-12-04T11:34:19;7.63;;;3.30;;
41629;SDS011;27322;49.488;8.480;2023-12-04T11:36:45;8.60;;;4.00;;
41629;SDS011;27322;49.488;8.480;2023-12-04T11:39:11;11.10;;;4.13;;
41629;SDS011;27322;49.488;8.480;2023-12-04T11:41:36;10.18;;;4.35;;
41629;SDS011;27322;49.488;8.480;2023-12-04T11:44:02;9.68;;;4.18;;
41629;SDS011;27322;49.488;8.480;2023-12-04T11:46:29;11.98;;;5.00;;
41629;SDS011;27322;49.488;8.480;2023-12-04T11:51:55;14.88;;;5.43;;
41629;SDS011;27322;49.488;8.480;2023-12-04T11:54:22;13.82;;;5.10;;
41629;SDS011;27322;49.488;8.480;2023-12-04T11:59:37;12.35;;;5.57;;
41629;SDS011;27322;49.488;8.480;2023-12-04T12:02:04;13.38;;;5.53;;
41629;SDS011;27322;49.488;8.480;2023-12-04T12:04:36;15.25;;;5.97;;
41629;SDS011;27322;49.488;8.480;2023-12-04T12:07:02;16.80;;;6.75;;
41629;SDS011;27322;49.488;8.480;2023-12-04T12:09:30;14.00;;;6.35;;
41629;SDS011;27322;49.488;8.480;2023-12-04T12:11:59;14.88;;;6.47;;
41629;SDS011;27322;49.488;8.480;2023-12-04T12:14:26;14.70;;;6.50;;
41629;SDS011;27322;49.488;8.480;2023-12-04T12:16:54;15.93;;;7.15;;
41629;SDS011;27322;49.488;8.480;2023-12-04T12:19:20;15.82;;;6.53;;
41629;SDS011;27322;49.488;8.480;2023-12-04T12:21:46;14.27;;;6.97;;
41629;SDS011;27322;49.488;8.480;2023-12-04T12:24:14;14.68;;;6.78;;
41629;SDS011;27322;49.488;8.480;2023-12-04T12:26:39;15.75;;;6.70;;
41629;SDS011;27322;49.488;8.480;2023-12-04T12:29:05;15.93;;;7.35;;
41629;SDS011;27322;49.488;8.480;2023-12-04T12:31:31;15.40;;;6.90;;
41629;SDS011;27322;49.488;8.480;2023-12-04T12:33:57;14.75;;;6.68;;
41629;SDS011;27322;49.488;8.480;2023-12-04T12:36:23;14.38;;;6.55;;
41629;SDS011;27322;49.488;8.480;2023-12-04T12:38:48;14.93;;;6.97;;
41629;SDS011;27322;49.488;8.480;2023-12-04T12:41:18;13.77;;;6.78;;
41629;SDS011;27322;49.488;8.480;2023-12-04T12:43:44;14.38;;;6.40;;
41629;SDS011;27322;49.488;8.480;2023-12-04T12:46:10;16.25;;;6.53;;
41629;SDS011;27322;49.488;8.480;2023-12-04T12:48:36;16.35;;;6.82;;
41629;SDS011;27322;49.488;8.480;2023-12-04T12:51:02;15.48;;;7.05;;
41629;SDS011;27322;49.488;8.480;2023-12-04T12:53:28;14.50;;;6.47;;
41629;SDS011;27322;49.488;8.480;2023-12-04T12:55:58;16.15;;;6.80;;
41629;SDS011;27322;49.488;8.480;2023-12-04T12:58:25;16.27;;;6.80;;
41629;SDS011;27322;49.488;8.480;2023-12-04T13:00:50;14.18;;;6.30;;
41629;SDS011;27322;49.488;8.480;2023-12-04T13:03:16;16.88;;;6.80;;
41629;SDS011;27322;49.488;8.480;2023-12-04T13:05:43;15.07;;;6.47;;
41629;SDS011;27322;49.488;8.480;2023-12-04T13:08:11;13.35;;;5.82;;
41629;SDS011;27322;49.488;8.480;2023-12-04T13:20:43;12.00;;;5.22;;
41629;SDS011;27322;49.488;8.480;2023-12-04T13:23:09;13.48;;;6.15;;
41629;SDS011;27322;49.488;8.480;2023-12-04T13:25:34;12.15;;;5.72;;
41629;SDS011;27322;49.488;8.480;2023-12-04T13:28:00;15.85;;;5.57;;
41629;SDS011;27322;49.488;8.480;2023-12-04T13:30:25;12.18;;;5.32;;
41629;SDS011;27322;49.488;8.480;2023-12-04T13:32:51;17.20;;;6.57;;
41629;SDS011;27322;49.488;8.480;2023-12-04T13:35:17;15.38;;;6.20;;
41629;SDS011;27322;49.488;8.480;2023-12-04T13:37:43;12.00;;;5.38;;
41629;SDS011;27322;49.488;8.480;2023-12-04T13:40:09;13.27;;;5.57;;
41629;SDS011;27322;49.488;8.480;2023-12-04T13:42:40;14.13;;;6.00;;
41629;SDS011;27322;49.488;8.480;2023-12-04T13:45:25;13.68;;;5.72;;
41629;SDS011;27322;49.488;8.480;2023-12-04T13:47:50;12.55;;;5.80;;
41629;SDS011;27322;49.488;8.480;2023-12-04T13:50:16;12.07;;;5.40;;
41629;SDS011;27322;49.488;8.480;2023-12-04T13:52:42;15.65;;;5.60;;
41629;SDS011;27322;49.488;8.480;2023-12-04T13:55:11;13.05;;;5.72;;
41629;SDS011;27322;49.488;8.480;2023-12-04T13:57:44;12.55;;;5.82;;
41629;SDS011;27322;49.488;8.480;2023-12-04T14:00:34;11.98;;;5.72;;
41629;SDS011;27322;49.488;8.480;2023-12-04T14:03:00;11.45;;;5.70;;
41629;SDS011;27322;49.488;8.480;2023-12-04T14:05:33;13.90;;;6.50;;
41629;SDS011;27322;49.488;8.480;2023-12-04T14:07:59;15.15;;;6.47;;
41629;SDS011;27322;49.488;8.480;2023-12-04T14:10:25;16.63;;;7.07;;
41629;SDS011;27322;49.488;8.480;2023-12-04T14:12:52;14.30;;;6.22;;
41629;SDS011;27322;49.488;8.480;2023-12-04T14:15:18;13.73;;;6.20;;
41629;SDS011;27322;49.488;8.480;2023-12-04T14:17:44;12.50;;;6.35;;
41629;SDS011;27322;49.488;8.480;2023-12-04T14:20:11;13.23;;;6.18;;
41629;SDS011;27322;49.488;8.480;2023-12-04T14:22:42;15.00;;;5.78;;
41629;SDS011;27322;49.488;8.480;2023-12-04T14:25:08;12.18;;;5.40;;
41629;SDS011;27322;49.488;8.480;2023-12-04T14:27:34;16.52;;;7.13;;
41629;SDS011;27322;49.488;8.480;2023-12-04T14:30:00;13.88;;;6.55;;
41629;SDS011;27322;49.488;8.480;2023-12-04T14:32:27;12.55;;;5.72;;
41629;SDS011;27322;49.488;8.480;2023-12-04T14:34:52;12.20;;;5.65;;
41629;SDS011;27322;49.488;8.480;2023-12-04T14:37:19;15.80;;;6.55;;
41629;SDS011;27322;49.488;8.480;2023-12-04T14:39:44;15.43;;;6.60;;
41629;SDS011;27322;49.488;8.480;2023-12-04T14:42:10;13.93;;;5.97;;
41629;SDS011;27322;49.488;8.480;2023-12-04T14:44:36;14.35;;;5.93;;
41629;SDS011;27322;49.488;8.480;2023-12-04T14:47:01;12.48;;;5.90;;
41629;SDS011;27322;49.488;8.480;2023-12-04T14:49:29;14.15;;;5.85;;
41629;SDS011;27322;49.488;8.480;2023-12-04T14:51:55;14.88;;;5.88;;
41629;SDS011;27322;49.488;8.480;2023-12-04T14:54:21;14.45;;;6.20;;